sensor_id;sensor_type;location;lat;lon;timestamp;P1;durP1;ratioP1;P2;durP2;ratioP2
35961;SDS011;22044;48.298;10.008;2022-07-03T00:01:54;3.87;;;1.70;;
35961;SDS011;22044;48.298;10.008;2022-07-03T00:04:23;3.00;;;2.23;;
35961;SDS011;22044;48.298;10.008;2022-07-03T00:06:51;4.30;;;1.93;;
35961;SDS011;22044;48.298;10.008;2022-07-03T00:09:19;3.50;;;2.10;;
35961;SDS011;22044;48.298;10.008;2022-07-03T00:11:47;4.80;;;1.87;;
35961;SDS011;22044;48.298;10.008;2022-07-03T00:14:14;3.50;;;2.13;;
35961;SDS011;22044;48.298;10.008;2022-07-03T00:16:41;2.23;;;1.80;;
35961;SDS011;22044;48.298;10.008;2022-07-03T00:19:09;3.47;;;2.07;;
35961;SDS011;22044;48.298;10.008;2022-07-03T00:21:38;6.90;;;2.20;;
35961;SDS011;22044;48.298;10.008;2022-07-03T00:24:16;3.93;;;1.60;;
35961;SDS011;22044;48.298;10.008;2022-07-03T00:26:50;3.37;;;1.83;;
35961;SDS011;22044;48.298;10.008;2022-07-03T00:29:19;3.27;;;2.07;;
35961;SDS011;22044;48.298;10.008;2022-07-03T00:31:49;4.07;;;2.00;;
35961;SDS011;22044;48.298;10.008;2022-07-03T00:34:17;2.90;;;1.73;;
35961;SDS011;22044;48.298;10.008;2022-07-03T00:36:46;4.37;;;2.23;;
35961;SDS011;22044;48.298;10.008;2022-07-03T00:39:15;2.37;;;1.90;;
35961;SDS011;22044;48.298;10.008;2022-07-03T00:41:43;4.27;;;2.10;;
35961;SDS011;22044;48.298;10.008;2022-07-03T00:44:11;3.43;;;2.20;;
35961;SDS011;22044;48.298;10.008;2022-07-03T00:46:38;2.30;;;2.10;;
35961;SDS011;22044;48.298;10.008;2022-07-03T00:49:08;2.00;;;1.80;;
35961;SDS011;22044;48.298;10.008;2022-07-03T00:51:37;4.27;;;2.30;;
35961;SDS011;22044;48.298;10.008;2022-07-03T00:54:07;2.20;;;1.83;;
35961;SDS011;22044;48.298;10.008;2022-07-03T00:56:37;2.30;;;2.10;;
35961;SDS011;22044;48.298;10.008;2022-07-03T00:59:06;9.30;;;2.57;;
35961;SDS011;22044;48.298;10.008;2022-07-03T01:01:35;6.27;;;1.87;;
35961;SDS011;22044;48.298;10.008;2022-07-03T01:04:10;2.30;;;2.10;;
35961;SDS011;22044;48.298;10.008;2022-07-03T01:06:47;2.30;;;2.03;;
35961;SDS011;22044;48.298;10.008;2022-07-03T01:09:22;3.37;;;2.17;;
35961;SDS011;22044;48.298;10.008;2022-07-03T01:11:58;3.07;;;2.00;;
35961;SDS011;22044;48.298;10.008;2022-07-03T01:14:36;3.90;;;2.20;;
35961;SDS011;22044;48.298;10.008;2022-07-03T01:17:12;3.50;;;2.20;;
35961;SDS011;22044;48.298;10.008;2022-07-03T01:19:48;2.37;;;2.03;;
35961;SDS011;22044;48.298;10.008;2022-07-03T01:22:29;3.53;;;2.10;;
35961;SDS011;22044;48.298;10.008;2022-07-03T01:27:57;2.20;;;2.00;;
35961;SDS011;22044;48.298;10.008;2022-07-03T01:30:33;2.60;;;2.40;;
35961;SDS011;22044;48.298;10.008;2022-07-03T01:33:02;2.47;;;2.20;;
35961;SDS011;22044;48.298;10.008;2022-07-03T01:35:33;2.67;;;2.27;;
35961;SDS011;22044;48.298;10.008;2022-07-03T01:38:02;2.20;;;2.00;;
35961;SDS011;22044;48.298;10.008;2022-07-03T01:40:32;2.90;;;1.90;;
35961;SDS011;22044;48.298;10.008;2022-07-03T01:43:03;2.50;;;2.00;;
35961;SDS011;22044;48.298;10.008;2022-07-03T01:45:32;7.83;;;2.20;;
35961;SDS011;22044;48.298;10.008;2022-07-03T01:48:05;3.73;;;1.80;;
35961;SDS011;22044;48.298;10.008;2022-07-03T01:50:33;2.90;;;2.00;;
35961;SDS011;22044;48.298;10.008;2022-07-03T01:53:02;3.47;;;1.93;;
35961;SDS011;22044;48.298;10.008;2022-07-03T01:55:32;3.50;;;2.33;;
35961;SDS011;22044;48.298;10.008;2022-07-03T01:58:03;4.10;;;2.40;;
35961;SDS011;22044;48.298;10.008;2022-07-03T02:00:31;2.33;;;2.13;;
35961;SDS011;22044;48.298;10.008;2022-07-03T02:03:07;3.20;;;2.07;;
35961;SDS011;22044;48.298;10.008;2022-07-03T02:05:37;2.43;;;2.20;;
35961;SDS011;22044;48.298;10.008;2022-07-03T02:08:12;5.33;;;2.53;;
35961;SDS011;22044;48.298;10.008;2022-07-03T02:10:52;3.33;;;2.70;;
35961;SDS011;22044;48.298;10.008;2022-07-03T02:13:34;2.43;;;2.23;;
35961;SDS011;22044;48.298;10.008;2022-07-03T02:16:07;3.20;;;3.00;;
35961;SDS011;22044;48.298;10.008;2022-07-03T02:18:36;4.33;;;3.33;;
35961;SDS011;22044;48.298;10.008;2022-07-03T02:21:05;2.70;;;2.50;;
35961;SDS011;22044;48.298;10.008;2022-07-03T02:23:51;4.20;;;2.60;;
35961;SDS011;22044;48.298;10.008;2022-07-03T02:26:26;3.30;;;2.40;;
35961;SDS011;22044;48.298;10.008;2022-07-03T02:28:58;3.60;;;2.57;;
35961;SDS011;22044;48.298;10.008;2022-07-03T02:31:28;3.80;;;2.47;;
35961;SDS011;22044;48.298;10.008;2022-07-03T02:34:01;3.83;;;2.77;;
35961;SDS011;22044;48.298;10.008;2022-07-03T02:36:31;6.60;;;2.50;;
35961;SDS011;22044;48.298;10.008;2022-07-03T02:38:59;4.03;;;2.80;;
35961;SDS011;22044;48.298;10.008;2022-07-03T02:41:29;7.30;;;2.90;;
35961;SDS011;22044;48.298;10.008;2022-07-03T02:44:10;3.13;;;2.80;;
35961;SDS011;22044;48.298;10.008;2022-07-03T02:46:50;2.83;;;2.57;;
35961;SDS011;22044;48.298;10.008;2022-07-03T02:49:41;5.53;;;2.90;;
35961;SDS011;22044;48.298;10.008;2022-07-03T02:52:28;7.73;;;3.10;;
35961;SDS011;22044;48.298;10.008;2022-07-03T02:54:59;5.07;;;3.00;;
35961;SDS011;22044;48.298;10.008;2022-07-03T02:57:36;3.07;;;2.80;;
35961;SDS011;22044;48.298;10.008;2022-07-03T03:00:07;3.10;;;2.80;;
35961;SDS011;22044;48.298;10.008;2022-07-03T03:02:38;3.00;;;2.70;;
35961;SDS011;22044;48.298;10.008;2022-07-03T03:05:21;5.87;;;3.30;;
35961;SDS011;22044;48.298;10.008;2022-07-03T03:08:08;2.90;;;2.57;;
35961;SDS011;22044;48.298;10.008;2022-07-03T03:10:39;6.37;;;2.70;;
35961;SDS011;22044;48.298;10.008;2022-07-03T03:13:07;6.23;;;2.90;;
35961;SDS011;22044;48.298;10.008;2022-07-03T03:15:37;4.97;;;2.97;;
35961;SDS011;22044;48.298;10.008;2022-07-03T03:18:08;5.77;;;3.30;;
35961;SDS011;22044;48.298;10.008;2022-07-03T03:20:38;5.57;;;3.40;;
35961;SDS011;22044;48.298;10.008;2022-07-03T03:23:11;4.17;;;3.63;;
35961;SDS011;22044;48.298;10.008;2022-07-03T03:25:44;4.87;;;4.47;;
35961;SDS011;22044;48.298;10.008;2022-07-03T03:28:12;3.60;;;3.30;;
35961;SDS011;22044;48.298;10.008;2022-07-03T03:30:40;3.73;;;3.37;;
35961;SDS011;22044;48.298;10.008;2022-07-03T03:33:07;4.03;;;3.47;;
35961;SDS011;22044;48.298;10.008;2022-07-03T03:35:36;6.37;;;3.67;;
35961;SDS011;22044;48.298;10.008;2022-07-03T03:38:04;4.00;;;3.60;;
35961;SDS011;22044;48.298;10.008;2022-07-03T03:40:32;4.47;;;4.03;;
35961;SDS011;22044;48.298;10.008;2022-07-03T03:43:00;4.03;;;3.67;;
35961;SDS011;22044;48.298;10.008;2022-07-03T03:45:29;3.93;;;3.63;;
35961;SDS011;22044;48.298;10.008;2022-07-03T03:47:57;5.10;;;3.50;;
35961;SDS011;22044;48.298;10.008;2022-07-03T03:50:24;5.53;;;3.83;;
35961;SDS011;22044;48.298;10.008;2022-07-03T03:52:51;3.87;;;3.20;;
35961;SDS011;22044;48.298;10.008;2022-07-03T03:55:19;4.00;;;3.57;;
35961;SDS011;22044;48.298;10.008;2022-07-03T03:57:46;4.20;;;3.50;;
35961;SDS011;22044;48.298;10.008;2022-07-03T04:00:14;3.40;;;3.10;;
35961;SDS011;22044;48.298;10.008;2022-07-03T04:02:41;3.50;;;3.20;;
35961;SDS011;22044;48.298;10.008;2022-07-03T04:05:10;3.90;;;3.50;;
35961;SDS011;22044;48.298;10.008;2022-07-03T04:07:37;6.17;;;3.50;;
35961;SDS011;22044;48.298;10.008;2022-07-03T04:10:04;4.37;;;3.70;;
35961;SDS011;22044;48.298;10.008;2022-07-03T04:12:32;5.87;;;4.10;;
35961;SDS011;22044;48.298;10.008;2022-07-03T04:15:00;4.77;;;3.57;;
35961;SDS011;22044;48.298;10.008;2022-07-03T04:17:28;4.30;;;3.90;;
35961;SDS011;22044;48.298;10.008;2022-07-03T04:19:55;4.53;;;3.50;;
35961;SDS011;22044;48.298;10.008;2022-07-03T04:22:23;5.20;;;3.80;;
35961;SDS011;22044;48.298;10.008;2022-07-03T04:24:50;6.37;;;3.90;;
35961;SDS011;22044;48.298;10.008;2022-07-03T04:27:17;3.93;;;3.53;;
35961;SDS011;22044;48.298;10.008;2022-07-03T04:29:44;4.10;;;3.43;;
35961;SDS011;22044;48.298;10.008;2022-07-03T04:32:11;3.70;;;3.40;;
35961;SDS011;22044;48.298;10.008;2022-07-03T04:34:39;4.63;;;3.63;;
35961;SDS011;22044;48.298;10.008;2022-07-03T04:37:06;7.37;;;3.60;;
35961;SDS011;22044;48.298;10.008;2022-07-03T04:39:34;3.57;;;3.13;;
35961;SDS011;22044;48.298;10.008;2022-07-03T04:42:01;5.80;;;3.77;;
35961;SDS011;22044;48.298;10.008;2022-07-03T04:44:28;3.83;;;3.53;;
35961;SDS011;22044;48.298;10.008;2022-07-03T04:46:55;6.70;;;3.90;;
35961;SDS011;22044;48.298;10.008;2022-07-03T04:49:23;3.77;;;3.47;;
35961;SDS011;22044;48.298;10.008;2022-07-03T04:51:50;7.00;;;3.63;;
35961;SDS011;22044;48.298;10.008;2022-07-03T04:54:18;5.40;;;3.37;;
35961;SDS011;22044;48.298;10.008;2022-07-03T04:56:46;4.60;;;3.70;;
35961;SDS011;22044;48.298;10.008;2022-07-03T04:59:13;5.10;;;4.13;;
35961;SDS011;22044;48.298;10.008;2022-07-03T05:01:40;3.93;;;3.30;;
35961;SDS011;22044;48.298;10.008;2022-07-03T05:04:07;4.63;;;3.80;;
35961;SDS011;22044;48.298;10.008;2022-07-03T05:06:34;5.40;;;3.87;;
35961;SDS011;22044;48.298;10.008;2022-07-03T05:09:01;5.13;;;4.13;;
35961;SDS011;22044;48.298;10.008;2022-07-03T05:11:29;4.30;;;3.90;;
35961;SDS011;22044;48.298;10.008;2022-07-03T05:13:58;5.80;;;4.10;;
35961;SDS011;22044;48.298;10.008;2022-07-03T05:16:25;4.17;;;3.87;;
35961;SDS011;22044;48.298;10.008;2022-07-03T05:18:52;4.77;;;3.97;;
35961;SDS011;22044;48.298;10.008;2022-07-03T05:21:19;4.33;;;3.83;;
35961;SDS011;22044;48.298;10.008;2022-07-03T05:23:46;7.17;;;4.43;;
35961;SDS011;22044;48.298;10.008;2022-07-03T05:26:13;6.67;;;4.07;;
35961;SDS011;22044;48.298;10.008;2022-07-03T05:28:40;4.47;;;3.97;;
35961;SDS011;22044;48.298;10.008;2022-07-03T05:31:09;4.10;;;3.70;;
35961;SDS011;22044;48.298;10.008;2022-07-03T05:33:36;4.20;;;3.80;;
35961;SDS011;22044;48.298;10.008;2022-07-03T05:36:04;4.67;;;4.27;;
35961;SDS011;22044;48.298;10.008;2022-07-03T05:38:31;4.23;;;3.60;;
35961;SDS011;22044;48.298;10.008;2022-07-03T05:41:16;4.07;;;3.67;;
35961;SDS011;22044;48.298;10.008;2022-07-03T05:43:44;4.60;;;4.10;;
35961;SDS011;22044;48.298;10.008;2022-07-03T05:46:12;4.10;;;3.70;;
35961;SDS011;22044;48.298;10.008;2022-07-03T05:48:39;4.40;;;3.53;;
35961;SDS011;22044;48.298;10.008;2022-07-03T05:51:07;4.23;;;3.83;;
35961;SDS011;22044;48.298;10.008;2022-07-03T05:53:34;5.67;;;3.77;;
35961;SDS011;22044;48.298;10.008;2022-07-03T05:56:01;6.03;;;3.80;;
35961;SDS011;22044;48.298;10.008;2022-07-03T05:58:28;3.80;;;3.40;;
35961;SDS011;22044;48.298;10.008;2022-07-03T06:00:55;4.33;;;3.90;;
35961;SDS011;22044;48.298;10.008;2022-07-03T06:03:24;6.97;;;3.70;;
35961;SDS011;22044;48.298;10.008;2022-07-03T06:05:51;7.17;;;4.07;;
35961;SDS011;22044;48.298;10.008;2022-07-03T06:08:18;4.17;;;3.77;;
35961;SDS011;22044;48.298;10.008;2022-07-03T06:10:45;4.10;;;3.67;;
35961;SDS011;22044;48.298;10.008;2022-07-03T06:13:12;4.20;;;3.90;;
35961;SDS011;22044;48.298;10.008;2022-07-03T06:15:39;4.13;;;3.53;;
35961;SDS011;22044;48.298;10.008;2022-07-03T06:18:06;7.30;;;3.97;;
35961;SDS011;22044;48.298;10.008;2022-07-03T06:20:35;4.43;;;4.07;;
35961;SDS011;22044;48.298;10.008;2022-07-03T06:23:02;4.40;;;3.90;;
35961;SDS011;22044;48.298;10.008;2022-07-03T06:25:29;4.40;;;3.73;;
35961;SDS011;22044;48.298;10.008;2022-07-03T06:27:56;4.30;;;3.70;;
35961;SDS011;22044;48.298;10.008;2022-07-03T06:30:23;3.77;;;3.47;;
35961;SDS011;22044;48.298;10.008;2022-07-03T06:32:50;7.17;;;4.10;;
35961;SDS011;22044;48.298;10.008;2022-07-03T06:35:17;3.97;;;3.67;;
35961;SDS011;22044;48.298;10.008;2022-07-03T06:37:46;3.90;;;3.57;;
35961;SDS011;22044;48.298;10.008;2022-07-03T06:40:13;5.13;;;3.67;;
35961;SDS011;22044;48.298;10.008;2022-07-03T06:42:40;3.50;;;3.20;;
35961;SDS011;22044;48.298;10.008;2022-07-03T06:45:07;4.43;;;3.40;;
35961;SDS011;22044;48.298;10.008;2022-07-03T06:47:38;4.37;;;3.30;;
35961;SDS011;22044;48.298;10.008;2022-07-03T06:50:06;4.20;;;3.60;;
35961;SDS011;22044;48.298;10.008;2022-07-03T06:52:34;3.40;;;3.10;;
35961;SDS011;22044;48.298;10.008;2022-07-03T06:55:02;4.90;;;2.97;;
35961;SDS011;22044;48.298;10.008;2022-07-03T06:57:30;3.40;;;3.10;;
35961;SDS011;22044;48.298;10.008;2022-07-03T06:59:57;4.10;;;2.88;;
35961;SDS011;22044;48.298;10.008;2022-07-03T07:02:24;3.47;;;3.13;;
35961;SDS011;22044;48.298;10.008;2022-07-03T07:04:51;6.15;;;3.08;;
35961;SDS011;22044;48.298;10.008;2022-07-03T07:07:18;3.05;;;2.60;;
35961;SDS011;22044;48.298;10.008;2022-07-03T07:09:46;3.13;;;2.83;;
35961;SDS011;22044;48.298;10.008;2022-07-03T07:12:15;3.55;;;2.67;;
35961;SDS011;22044;48.298;10.008;2022-07-03T07:14:42;3.58;;;2.90;;
35961;SDS011;22044;48.298;10.008;2022-07-03T07:17:09;3.00;;;2.58;;
35961;SDS011;22044;48.298;10.008;2022-07-03T07:19:37;2.70;;;2.50;;
35961;SDS011;22044;48.298;10.008;2022-07-03T07:22:04;5.40;;;2.70;;
35961;SDS011;22044;48.298;10.008;2022-07-03T07:24:31;3.50;;;2.53;;
35961;SDS011;22044;48.298;10.008;2022-07-03T07:26:58;3.80;;;2.33;;
35961;SDS011;22044;48.298;10.008;2022-07-03T07:29:26;2.70;;;2.50;;
35961;SDS011;22044;48.298;10.008;2022-07-03T07:31:54;3.88;;;2.20;;
35961;SDS011;22044;48.298;10.008;2022-07-03T07:34:21;3.20;;;2.30;;
35961;SDS011;22044;48.298;10.008;2022-07-03T07:36:48;2.90;;;2.50;;
35961;SDS011;22044;48.298;10.008;2022-07-03T07:39:15;2.42;;;2.22;;
35961;SDS011;22044;48.298;10.008;2022-07-03T07:41:42;2.92;;;2.28;;
35961;SDS011;22044;48.298;10.008;2022-07-03T07:44:09;3.38;;;2.15;;
35961;SDS011;22044;48.298;10.008;2022-07-03T07:46:39;3.50;;;2.20;;
35961;SDS011;22044;48.298;10.008;2022-07-03T07:49:06;2.22;;;2.00;;
35961;SDS011;22044;48.298;10.008;2022-07-03T07:51:33;2.65;;;2.10;;
35961;SDS011;22044;48.298;10.008;2022-07-03T07:54:00;2.33;;;2.13;;
35961;SDS011;22044;48.298;10.008;2022-07-03T07:56:27;2.42;;;2.15;;
35961;SDS011;22044;48.298;10.008;2022-07-03T07:58:54;1.77;;;1.60;;
35961;SDS011;22044;48.298;10.008;2022-07-03T08:01:21;2.33;;;1.90;;
35961;SDS011;22044;48.298;10.008;2022-07-03T08:04:07;2.35;;;1.85;;
35961;SDS011;22044;48.298;10.008;2022-07-03T08:06:51;2.88;;;1.70;;
35961;SDS011;22044;48.298;10.008;2022-07-03T08:09:18;1.80;;;1.70;;
35961;SDS011;22044;48.298;10.008;2022-07-03T08:11:45;2.08;;;1.40;;
35961;SDS011;22044;48.298;10.008;2022-07-03T08:14:12;2.70;;;1.30;;
35961;SDS011;22044;48.298;10.008;2022-07-03T08:16:39;2.40;;;1.55;;
35961;SDS011;22044;48.298;10.008;2022-07-03T08:19:09;2.00;;;1.40;;
35961;SDS011;22044;48.298;10.008;2022-07-03T08:21:36;2.00;;;1.60;;
35961;SDS011;22044;48.298;10.008;2022-07-03T08:24:04;2.25;;;1.60;;
35961;SDS011;22044;48.298;10.008;2022-07-03T08:26:31;2.40;;;1.40;;
35961;SDS011;22044;48.298;10.008;2022-07-03T08:28:58;1.73;;;1.40;;
35961;SDS011;22044;48.298;10.008;2022-07-03T08:31:26;1.50;;;1.40;;
35961;SDS011;22044;48.298;10.008;2022-07-03T08:33:54;1.60;;;1.50;;
35961;SDS011;22044;48.298;10.008;2022-07-03T08:36:23;1.67;;;1.40;;
35961;SDS011;22044;48.298;10.008;2022-07-03T08:38:50;2.88;;;1.58;;
35961;SDS011;22044;48.298;10.008;2022-07-03T08:41:17;1.50;;;1.40;;
35961;SDS011;22044;48.298;10.008;2022-07-03T08:43:46;2.70;;;1.20;;
35961;SDS011;22044;48.298;10.008;2022-07-03T08:46:16;2.38;;;1.25;;
35961;SDS011;22044;48.298;10.008;2022-07-03T08:48:43;1.45;;;1.23;;
35961;SDS011;22044;48.298;10.008;2022-07-03T08:51:12;1.05;;;1.00;;
35961;SDS011;22044;48.298;10.008;2022-07-03T08:53:42;1.23;;;1.13;;
35961;SDS011;22044;48.298;10.008;2022-07-03T08:56:10;1.23;;;1.13;;
35961;SDS011;22044;48.298;10.008;2022-07-03T08:58:37;2.88;;;1.42;;
35961;SDS011;22044;48.298;10.008;2022-07-03T09:01:05;1.75;;;1.33;;
35961;SDS011;22044;48.298;10.008;2022-07-03T09:03:34;1.40;;;1.30;;
35961;SDS011;22044;48.298;10.008;2022-07-03T09:06:02;3.25;;;1.45;;
35961;SDS011;22044;48.298;10.008;2022-07-03T09:08:30;1.48;;;1.20;;
35961;SDS011;22044;48.298;10.008;2022-07-03T09:10:59;1.50;;;1.40;;
35961;SDS011;22044;48.298;10.008;2022-07-03T09:13:27;4.07;;;1.27;;
35961;SDS011;22044;48.298;10.008;2022-07-03T09:15:54;2.85;;;1.30;;
35961;SDS011;22044;48.298;10.008;2022-07-03T09:18:35;1.48;;;1.20;;
35961;SDS011;22044;48.298;10.008;2022-07-03T09:21:04;1.42;;;1.17;;
35961;SDS011;22044;48.298;10.008;2022-07-03T09:23:35;1.90;;;1.33;;
35961;SDS011;22044;48.298;10.008;2022-07-03T09:26:04;1.40;;;1.30;;
35961;SDS011;22044;48.298;10.008;2022-07-03T09:31:21;1.10;;;1.00;;
35961;SDS011;22044;48.298;10.008;2022-07-03T09:33:53;1.58;;;1.05;;
35961;SDS011;22044;48.298;10.008;2022-07-03T09:36:22;1.80;;;1.08;;
35961;SDS011;22044;48.298;10.008;2022-07-03T09:39:10;1.90;;;1.25;;
35961;SDS011;22044;48.298;10.008;2022-07-03T09:41:51;5.18;;;1.20;;
35961;SDS011;22044;48.298;10.008;2022-07-03T09:44:27;1.38;;;1.17;;
35961;SDS011;22044;48.298;10.008;2022-07-03T09:47:05;2.17;;;1.13;;
35961;SDS011;22044;48.298;10.008;2022-07-03T09:49:45;1.35;;;1.08;;
35961;SDS011;22044;48.298;10.008;2022-07-03T09:55:11;1.45;;;1.27;;
35961;SDS011;22044;48.298;10.008;2022-07-03T09:57:45;2.97;;;1.25;;
35961;SDS011;22044;48.298;10.008;2022-07-03T10:00:25;1.30;;;1.20;;
35961;SDS011;22044;48.298;10.008;2022-07-03T10:02:55;0.98;;;0.88;;
35961;SDS011;22044;48.298;10.008;2022-07-03T10:05:24;0.98;;;0.90;;
35961;SDS011;22044;48.298;10.008;2022-07-03T10:07:53;0.80;;;0.80;;
35961;SDS011;22044;48.298;10.008;2022-07-03T10:10:22;1.00;;;0.90;;
35961;SDS011;22044;48.298;10.008;2022-07-03T10:12:52;0.93;;;0.90;;
35961;SDS011;22044;48.298;10.008;2022-07-03T10:15:20;0.88;;;0.80;;
35961;SDS011;22044;48.298;10.008;2022-07-03T10:17:49;2.45;;;1.00;;
35961;SDS011;22044;48.298;10.008;2022-07-03T10:20:19;1.83;;;0.90;;
35961;SDS011;22044;48.298;10.008;2022-07-03T10:22:52;0.93;;;0.90;;
35961;SDS011;22044;48.298;10.008;2022-07-03T10:25:20;0.90;;;0.90;;
35961;SDS011;22044;48.298;10.008;2022-07-03T10:27:47;1.05;;;0.95;;
35961;SDS011;22044;48.298;10.008;2022-07-03T10:30:17;1.90;;;0.80;;
35961;SDS011;22044;48.298;10.008;2022-07-03T10:32:46;0.90;;;0.90;;
35961;SDS011;22044;48.298;10.008;2022-07-03T10:35:15;0.80;;;0.80;;
35961;SDS011;22044;48.298;10.008;2022-07-03T10:37:56;1.05;;;0.98;;
35961;SDS011;22044;48.298;10.008;2022-07-03T10:40:36;3.65;;;0.80;;
35961;SDS011;22044;48.298;10.008;2022-07-03T10:43:26;1.25;;;0.80;;
35961;SDS011;22044;48.298;10.008;2022-07-03T10:46:14;1.02;;;0.80;;
35961;SDS011;22044;48.298;10.008;2022-07-03T10:54:21;2.47;;;0.80;;
35961;SDS011;22044;48.298;10.008;2022-07-03T11:02:33;1.85;;;1.25;;
35961;SDS011;22044;48.298;10.008;2022-07-03T11:05:11;0.80;;;0.80;;
35961;SDS011;22044;48.298;10.008;2022-07-03T11:08:08;1.05;;;0.95;;
35961;SDS011;22044;48.298;10.008;2022-07-03T11:10:42;0.98;;;0.90;;
35961;SDS011;22044;48.298;10.008;2022-07-03T11:13:11;1.63;;;0.90;;
35961;SDS011;22044;48.298;10.008;2022-07-03T11:15:43;1.30;;;0.90;;
35961;SDS011;22044;48.298;10.008;2022-07-03T11:18:17;0.80;;;0.80;;
35961;SDS011;22044;48.298;10.008;2022-07-03T11:24:01;0.70;;;0.70;;
35961;SDS011;22044;48.298;10.008;2022-07-03T11:29:58;2.00;;;1.00;;
35961;SDS011;22044;48.298;10.008;2022-07-03T11:38:20;1.05;;;0.90;;
35961;SDS011;22044;48.298;10.008;2022-07-03T11:40:50;0.80;;;0.80;;
35961;SDS011;22044;48.298;10.008;2022-07-03T11:43:18;1.55;;;0.90;;
35961;SDS011;22044;48.298;10.008;2022-07-03T11:45:46;0.80;;;0.80;;
35961;SDS011;22044;48.298;10.008;2022-07-03T11:48:14;1.50;;;0.90;;
35961;SDS011;22044;48.298;10.008;2022-07-03T11:50:43;2.17;;;1.00;;
35961;SDS011;22044;48.298;10.008;2022-07-03T11:53:16;3.15;;;1.05;;
35961;SDS011;22044;48.298;10.008;2022-07-03T11:55:48;0.98;;;0.90;;
35961;SDS011;22044;48.298;10.008;2022-07-03T11:58:17;0.95;;;0.90;;
35961;SDS011;22044;48.298;10.008;2022-07-03T12:00:44;0.77;;;0.77;;
35961;SDS011;22044;48.298;10.008;2022-07-03T12:03:15;1.58;;;0.80;;
35961;SDS011;22044;48.298;10.008;2022-07-03T12:05:51;1.10;;;0.90;;
35961;SDS011;22044;48.298;10.008;2022-07-03T12:08:24;0.90;;;0.90;;
35961;SDS011;22044;48.298;10.008;2022-07-03T12:10:57;0.85;;;0.73;;
35961;SDS011;22044;48.298;10.008;2022-07-03T12:13:28;1.63;;;0.90;;
35961;SDS011;22044;48.298;10.008;2022-07-03T12:16:01;1.90;;;0.85;;
35961;SDS011;22044;48.298;10.008;2022-07-03T12:18:46;0.80;;;0.80;;
35961;SDS011;22044;48.298;10.008;2022-07-03T12:21:15;1.20;;;0.90;;
35961;SDS011;22044;48.298;10.008;2022-07-03T12:23:46;0.80;;;0.80;;
35961;SDS011;22044;48.298;10.008;2022-07-03T12:26:14;1.60;;;1.13;;
35961;SDS011;22044;48.298;10.008;2022-07-03T12:28:54;0.80;;;0.80;;
35961;SDS011;22044;48.298;10.008;2022-07-03T12:31:22;0.98;;;0.80;;
35961;SDS011;22044;48.298;10.008;2022-07-03T12:33:49;1.00;;;0.95;;
35961;SDS011;22044;48.298;10.008;2022-07-03T12:36:16;0.80;;;0.80;;
35961;SDS011;22044;48.298;10.008;2022-07-03T12:38:48;1.83;;;0.80;;
35961;SDS011;22044;48.298;10.008;2022-07-03T12:41:15;1.65;;;1.13;;
35961;SDS011;22044;48.298;10.008;2022-07-03T12:43:44;1.33;;;0.90;;
35961;SDS011;22044;48.298;10.008;2022-07-03T12:46:20;0.80;;;0.80;;
35961;SDS011;22044;48.298;10.008;2022-07-03T12:48:49;1.70;;;0.90;;
35961;SDS011;22044;48.298;10.008;2022-07-03T12:54:05;1.88;;;0.98;;
35961;SDS011;22044;48.298;10.008;2022-07-03T12:56:32;1.23;;;0.93;;
35961;SDS011;22044;48.298;10.008;2022-07-03T12:59:00;1.30;;;0.98;;
35961;SDS011;22044;48.298;10.008;2022-07-03T13:01:44;2.35;;;0.90;;
35961;SDS011;22044;48.298;10.008;2022-07-03T13:04:29;2.03;;;0.90;;
35961;SDS011;22044;48.298;10.008;2022-07-03T13:06:59;1.15;;;0.85;;
35961;SDS011;22044;48.298;10.008;2022-07-03T13:09:28;1.10;;;1.00;;
35961;SDS011;22044;48.298;10.008;2022-07-03T13:11:55;1.17;;;1.00;;
35961;SDS011;22044;48.298;10.008;2022-07-03T13:14:22;1.67;;;0.80;;
35961;SDS011;22044;48.298;10.008;2022-07-03T13:16:50;1.15;;;0.90;;
35961;SDS011;22044;48.298;10.008;2022-07-03T13:19:19;1.35;;;0.90;;
35961;SDS011;22044;48.298;10.008;2022-07-03T13:21:47;1.30;;;1.10;;
35961;SDS011;22044;48.298;10.008;2022-07-03T13:24:16;2.15;;;0.88;;
35961;SDS011;22044;48.298;10.008;2022-07-03T13:26:45;3.75;;;1.13;;
35961;SDS011;22044;48.298;10.008;2022-07-03T13:29:13;1.23;;;1.02;;
35961;SDS011;22044;48.298;10.008;2022-07-03T13:31:40;1.25;;;1.00;;
35961;SDS011;22044;48.298;10.008;2022-07-03T13:34:07;1.05;;;0.80;;
35961;SDS011;22044;48.298;10.008;2022-07-03T13:36:34;1.17;;;0.80;;
35961;SDS011;22044;48.298;10.008;2022-07-03T13:39:02;3.30;;;1.10;;
35961;SDS011;22044;48.298;10.008;2022-07-03T13:41:29;1.08;;;0.98;;
35961;SDS011;22044;48.298;10.008;2022-07-03T13:43:57;0.90;;;0.90;;
35961;SDS011;22044;48.298;10.008;2022-07-03T13:46:24;2.97;;;1.08;;
35961;SDS011;22044;48.298;10.008;2022-07-03T13:48:52;2.30;;;1.10;;
35961;SDS011;22044;48.298;10.008;2022-07-03T13:51:19;1.85;;;1.10;;
35961;SDS011;22044;48.298;10.008;2022-07-03T13:53:47;1.15;;;0.80;;
35961;SDS011;22044;48.298;10.008;2022-07-03T13:56:14;1.17;;;0.90;;
35961;SDS011;22044;48.298;10.008;2022-07-03T13:58:42;2.47;;;1.00;;
35961;SDS011;22044;48.298;10.008;2022-07-03T14:01:11;0.95;;;0.90;;
35961;SDS011;22044;48.298;10.008;2022-07-03T14:03:38;1.02;;;0.98;;
35961;SDS011;22044;48.298;10.008;2022-07-03T14:06:05;0.98;;;0.90;;
35961;SDS011;22044;48.298;10.008;2022-07-03T14:08:32;0.93;;;0.80;;
35961;SDS011;22044;48.298;10.008;2022-07-03T14:10:59;1.17;;;0.90;;
35961;SDS011;22044;48.298;10.008;2022-07-03T14:13:26;1.23;;;1.00;;
35961;SDS011;22044;48.298;10.008;2022-07-03T14:15:53;1.40;;;1.10;;
35961;SDS011;22044;48.298;10.008;2022-07-03T14:18:22;1.15;;;0.95;;
35961;SDS011;22044;48.298;10.008;2022-07-03T14:20:49;0.70;;;0.70;;
35961;SDS011;22044;48.298;10.008;2022-07-03T14:23:16;3.75;;;1.10;;
35961;SDS011;22044;48.298;10.008;2022-07-03T14:25:43;3.13;;;0.98;;
35961;SDS011;22044;48.298;10.008;2022-07-03T14:28:10;1.40;;;0.98;;
35961;SDS011;22044;48.298;10.008;2022-07-03T14:30:55;1.55;;;1.00;;
35961;SDS011;22044;48.298;10.008;2022-07-03T14:33:40;1.10;;;1.00;;
35961;SDS011;22044;48.298;10.008;2022-07-03T14:36:08;4.03;;;1.10;;
35961;SDS011;22044;48.298;10.008;2022-07-03T14:38:35;0.80;;;0.80;;
35961;SDS011;22044;48.298;10.008;2022-07-03T14:41:02;1.95;;;0.90;;
35961;SDS011;22044;48.298;10.008;2022-07-03T14:43:29;0.95;;;0.90;;
35961;SDS011;22044;48.298;10.008;2022-07-03T14:45:56;1.70;;;1.20;;
35961;SDS011;22044;48.298;10.008;2022-07-03T14:48:23;1.27;;;0.88;;
35961;SDS011;22044;48.298;10.008;2022-07-03T14:50:52;1.58;;;1.30;;
35961;SDS011;22044;48.298;10.008;2022-07-03T14:53:20;2.63;;;0.95;;
35961;SDS011;22044;48.298;10.008;2022-07-03T14:55:48;1.95;;;1.00;;
35961;SDS011;22044;48.298;10.008;2022-07-03T14:58:18;1.20;;;1.02;;
35961;SDS011;22044;48.298;10.008;2022-07-03T15:00:48;1.40;;;1.00;;
35961;SDS011;22044;48.298;10.008;2022-07-03T15:03:18;1.10;;;1.00;;
35961;SDS011;22044;48.298;10.008;2022-07-03T15:05:52;1.58;;;1.02;;
35961;SDS011;22044;48.298;10.008;2022-07-03T15:08:29;1.50;;;1.05;;
35961;SDS011;22044;48.298;10.008;2022-07-03T15:11:06;1.55;;;1.10;;
35961;SDS011;22044;48.298;10.008;2022-07-03T15:13:34;2.88;;;1.10;;
35961;SDS011;22044;48.298;10.008;2022-07-03T15:16:01;2.75;;;1.08;;
35961;SDS011;22044;48.298;10.008;2022-07-03T15:18:28;1.70;;;1.00;;
35961;SDS011;22044;48.298;10.008;2022-07-03T15:20:57;1.83;;;1.25;;
35961;SDS011;22044;48.298;10.008;2022-07-03T15:23:27;3.13;;;1.30;;
35961;SDS011;22044;48.298;10.008;2022-07-03T15:25:56;1.10;;;1.00;;